sensor_id;sensor_type;location;lat;lon;timestamp;pressure;altitude;pressure_sealevel;temperature;humidity
56334;BME280;42240;53.626;55.886;2023-04-07T00:00:26;76461.88;;;-145.10;96.01
56334;BME280;42240;53.626;55.886;2023-04-07T00:01:59;76465.84;;;-145.10;96.62
56334;BME280;42240;53.626;55.886;2023-04-07T00:03:32;76463.88;;;-145.10;96.92
56334;BME280;42240;53.626;55.886;2023-04-07T00:05:05;76469.78;;;-145.10;96.86
56334;BME280;42240;53.626;55.886;2023-04-07T00:06:38;76471.78;;;-145.10;97.35
56334;BME280;42240;53.626;55.886;2023-04-07T00:08:11;76481.66;;;-145.10;97.26
56334;BME280;42240;53.626;55.886;2023-04-07T00:09:44;76489.56;;;-145.10;98.33
56334;BME280;42240;53.626;55.886;2023-04-07T00:11:17;76485.63;;;-145.10;98.27
56334;BME280;42240;53.626;55.886;2023-04-07T00:12:49;76499.47;;;-145.10;98.87
56334;BME280;42240;53.626;55.886;2023-04-07T00:14:22;76497.47;;;-145.10;99.23
56334;BME280;42240;53.626;55.886;2023-04-07T00:15:55;76499.47;;;-145.10;99.84
56334;BME280;42240;53.626;55.886;2023-04-07T00:17:28;76503.41;;;-145.10;99.99
56334;BME280;42240;53.626;55.886;2023-04-07T00:19:00;76499.47;;;-145.10;100.00
56334;BME280;42240;53.626;55.886;2023-04-07T00:20:33;76501.44;;;-145.10;100.00
56334;BME280;42240;53.626;55.886;2023-04-07T00:22:06;76501.44;;;-145.10;100.00
56334;BME280;42240;53.626;55.886;2023-04-07T00:23:39;76515.28;;;-145.10;100.00
56334;BME280;42240;53.626;55.886;2023-04-07T00:25:11;76517.25;;;-145.10;100.00
56334;BME280;42240;53.626;55.886;2023-04-07T00:26:44;76511.31;;;-145.10;100.00
56334;BME280;42240;53.626;55.886;2023-04-07T00:28:16;76505.38;;;-145.10;98.47
56334;BME280;42240;53.626;55.886;2023-04-07T00:29:49;76493.53;;;-145.10;97.14
56334;BME280;42240;53.626;55.886;2023-04-07T00:31:22;76495.50;;;-145.10;100.00
56334;BME280;42240;53.626;55.886;2023-04-07T00:32:55;76493.53;;;-145.10;100.00
56334;BME280;42240;53.626;55.886;2023-04-07T00:34:28;76491.53;;;-145.10;100.00
56334;BME280;42240;53.626;55.886;2023-04-07T00:36:01;76489.56;;;-145.10;100.00
56334;BME280;42240;53.626;55.886;2023-04-07T00:37:34;76477.72;;;-145.10;100.00
56334;BME280;42240;53.626;55.886;2023-04-07T00:39:07;76473.75;;;-145.10;100.00
56334;BME280;42240;53.626;55.886;2023-04-07T00:40:40;76465.84;;;-145.10;100.00
56334;BME280;42240;53.626;55.886;2023-04-07T00:42:13;76457.94;;;-145.10;100.00
56334;BME280;42240;53.626;55.886;2023-04-07T00:43:46;76452.00;;;-145.10;100.00
56334;BME280;42240;53.626;55.886;2023-04-07T00:45:19;76448.03;;;-145.10;100.00
56334;BME280;42240;53.626;55.886;2023-04-07T00:46:52;76450.03;;;-145.10;100.00
56334;BME280;42240;53.626;55.886;2023-04-07T00:48:25;76438.16;;;-145.10;100.00
56334;BME280;42240;53.626;55.886;2023-04-07T00:49:58;76434.19;;;-145.10;100.00
56334;BME280;42240;53.626;55.886;2023-04-07T00:51:30;76438.16;;;-145.10;100.00
56334;BME280;42240;53.626;55.886;2023-04-07T00:53:04;76438.16;;;-145.10;100.00
56334;BME280;42240;53.626;55.886;2023-04-07T00:54:38;76450.03;;;-145.10;100.00
56334;BME280;42240;53.626;55.886;2023-04-07T00:56:10;76453.97;;;-145.10;100.00
56334;BME280;42240;53.626;55.886;2023-04-07T00:57:44;76457.94;;;-145.10;100.00
56334;BME280;42240;53.626;55.886;2023-04-07T00:59:18;76459.91;;;-145.10;100.00
56334;BME280;42240;53.626;55.886;2023-04-07T01:01:08;76463.88;;;-145.10;100.00
56334;BME280;42240;53.626;55.886;2023-04-07T01:02:54;76455.97;;;-145.10;100.00
56334;BME280;42240;53.626;55.886;2023-04-07T01:06:04;76455.97;;;-145.10;100.00
56334;BME280;42240;53.626;55.886;2023-04-07T01:07:39;76455.97;;;-145.10;100.00
56334;BME280;42240;53.626;55.886;2023-04-07T01:09:20;76450.03;;;-145.10;100.00
56334;BME280;42240;53.626;55.886;2023-04-07T01:10:55;76453.97;;;-145.10;100.00
56334;BME280;42240;53.626;55.886;2023-04-07T01:12:34;76442.13;;;-145.10;100.00
56334;BME280;42240;53.626;55.886;2023-04-07T01:14:08;76426.28;;;-145.10;100.00
56334;BME280;42240;53.626;55.886;2023-04-07T01:15:49;76414.44;;;-145.10;100.00
56334;BME280;42240;53.626;55.886;2023-04-07T01:17:25;76408.50;;;-145.10;100.00
56334;BME280;42240;53.626;55.886;2023-04-07T01:19:26;76398.63;;;-145.10;100.00
56334;BME280;42240;53.626;55.886;2023-04-07T01:21:13;76398.63;;;-145.10;100.00
56334;BME280;42240;53.626;55.886;2023-04-07T01:22:48;76388.72;;;-145.10;100.00
56334;BME280;42240;53.626;55.886;2023-04-07T01:27:37;76365.00;;;-145.10;100.00
56334;BME280;42240;53.626;55.886;2023-04-07T01:31:05;76355.13;;;-145.10;100.00
56334;BME280;42240;53.626;55.886;2023-04-07T01:32:39;76355.13;;;-145.10;100.00
56334;BME280;42240;53.626;55.886;2023-04-07T01:34:13;76359.06;;;-145.10;100.00
56334;BME280;42240;53.626;55.886;2023-04-07T01:35:46;76357.09;;;-145.10;99.68
56334;BME280;42240;53.626;55.886;2023-04-07T01:37:21;76363.03;;;-145.10;99.71
56334;BME280;42240;53.626;55.886;2023-04-07T01:38:54;76363.03;;;-145.10;99.73
56334;BME280;42240;53.626;55.886;2023-04-07T01:40:29;76366.97;;;-145.10;100.00
56334;BME280;42240;53.626;55.886;2023-04-07T01:42:02;76370.94;;;-145.10;99.81
56334;BME280;42240;53.626;55.886;2023-04-07T01:43:36;76368.94;;;-145.10;100.00
56334;BME280;42240;53.626;55.886;2023-04-07T01:45:12;76372.91;;;-145.10;100.00
56334;BME280;42240;53.626;55.886;2023-04-07T01:46:47;76386.75;;;-145.10;100.00
56334;BME280;42240;53.626;55.886;2023-04-07T01:48:22;76394.66;;;-145.10;100.00
56334;BME280;42240;53.626;55.886;2023-04-07T01:49:58;76376.88;;;-145.10;100.00
56334;BME280;42240;53.626;55.886;2023-04-07T01:51:34;76398.63;;;-145.10;100.00
56334;BME280;42240;53.626;55.886;2023-04-07T01:53:07;76396.63;;;-145.10;100.00
56334;BME280;42240;53.626;55.886;2023-04-07T01:54:40;76412.44;;;-145.10;100.00
56334;BME280;42240;53.626;55.886;2023-04-07T01:56:13;76406.53;;;-145.10;100.00
56334;BME280;42240;53.626;55.886;2023-04-07T01:57:49;76408.50;;;-145.10;100.00
56334;BME280;42240;53.626;55.886;2023-04-07T01:59:24;76404.53;;;-145.10;100.00
56334;BME280;42240;53.626;55.886;2023-04-07T02:00:58;76414.44;;;-145.10;100.00
56334;BME280;42240;53.626;55.886;2023-04-07T02:02:33;76414.44;;;-145.10;100.00
56334;BME280;42240;53.626;55.886;2023-04-07T02:04:13;76434.19;;;-145.10;100.00
56334;BME280;42240;53.626;55.886;2023-04-07T02:05:49;76438.16;;;-145.10;100.00
56334;BME280;42240;53.626;55.886;2023-04-07T02:07:30;76430.25;;;-145.10;100.00
56334;BME280;42240;53.626;55.886;2023-04-07T02:09:06;76438.16;;;-145.10;100.00
56334;BME280;42240;53.626;55.886;2023-04-07T02:10:40;76450.03;;;-145.10;100.00
56334;BME280;42240;53.626;55.886;2023-04-07T02:12:13;76446.06;;;-145.10;100.00
56334;BME280;42240;53.626;55.886;2023-04-07T02:13:58;76450.03;;;-145.10;100.00
56334;BME280;42240;53.626;55.886;2023-04-07T02:15:56;76457.94;;;-145.10;100.00
56334;BME280;42240;53.626;55.886;2023-04-07T02:17:29;76450.03;;;-145.10;100.00
56334;BME280;42240;53.626;55.886;2023-04-07T02:19:06;76461.88;;;-145.10;100.00
56334;BME280;42240;53.626;55.886;2023-04-07T02:20:40;76463.88;;;-145.10;100.00
56334;BME280;42240;53.626;55.886;2023-04-07T02:22:15;76469.78;;;-145.10;100.00
56334;BME280;42240;53.626;55.886;2023-04-07T02:23:48;76465.84;;;-145.10;100.00
56334;BME280;42240;53.626;55.886;2023-04-07T02:26:55;76481.66;;;-145.10;100.00
56334;BME280;42240;53.626;55.886;2023-04-07T02:28:29;76479.69;;;-145.10;100.00
56334;BME280;42240;53.626;55.886;2023-04-07T02:30:02;76481.66;;;-145.10;100.00
56334;BME280;42240;53.626;55.886;2023-04-07T02:31:34;76483.63;;;-145.10;100.00
56334;BME280;42240;53.626;55.886;2023-04-07T02:33:07;76487.59;;;-145.10;100.00
56334;BME280;42240;53.626;55.886;2023-04-07T02:34:40;76491.53;;;-145.10;100.00
56334;BME280;42240;53.626;55.886;2023-04-07T02:36:13;76495.50;;;-145.10;100.00
56334;BME280;42240;53.626;55.886;2023-04-07T02:37:46;76505.38;;;-145.10;100.00
56334;BME280;42240;53.626;55.886;2023-04-07T02:39:19;76491.53;;;-145.10;100.00
56334;BME280;42240;53.626;55.886;2023-04-07T02:40:52;76485.63;;;-145.10;100.00
56334;BME280;42240;53.626;55.886;2023-04-07T02:42:25;76485.63;;;-145.10;100.00
56334;BME280;42240;53.626;55.886;2023-04-07T02:43:59;76493.53;;;-145.10;100.00
56334;BME280;42240;53.626;55.886;2023-04-07T02:45:32;76507.38;;;-145.10;100.00
56334;BME280;42240;53.626;55.886;2023-04-07T02:47:04;76505.38;;;-145.10;100.00
56334;BME280;42240;53.626;55.886;2023-04-07T02:48:37;76507.38;;;-145.10;100.00
56334;BME280;42240;53.626;55.886;2023-04-07T02:50:10;76505.38;;;-145.10;100.00
56334;BME280;42240;53.626;55.886;2023-04-07T02:51:43;76507.38;;;-145.10;100.00
56334;BME280;42240;53.626;55.886;2023-04-07T02:53:21;76497.47;;;-145.10;100.00
56334;BME280;42240;53.626;55.886;2023-04-07T02:54:54;76507.38;;;-145.10;100.00
56334;BME280;42240;53.626;55.886;2023-04-07T02:56:30;76519.22;;;-145.10;100.00
56334;BME280;42240;53.626;55.886;2023-04-07T02:58:04;76537.03;;;-145.10;100.00
56334;BME280;42240;53.626;55.886;2023-04-07T02:59:48;76529.13;;;-145.10;100.00
56334;BME280;42240;53.626;55.886;2023-04-07T03:01:21;76552.84;;;-145.10;100.00
56334;BME280;42240;53.626;55.886;2023-04-07T03:02:54;76564.72;;;-145.10;100.00
56334;BME280;42240;53.626;55.886;2023-04-07T03:04:27;76566.69;;;-145.10;100.00
56334;BME280;42240;53.626;55.886;2023-04-07T03:06:02;76572.63;;;-145.10;100.00
56334;BME280;42240;53.626;55.886;2023-04-07T03:07:36;76580.53;;;-145.10;100.00
56334;BME280;42240;53.626;55.886;2023-04-07T03:09:09;76592.41;;;-145.10;100.00
56334;BME280;42240;53.626;55.886;2023-04-07T03:10:43;76596.34;;;-145.10;100.00
56334;BME280;42240;53.626;55.886;2023-04-07T03:12:16;76598.31;;;-145.10;100.00
56334;BME280;42240;53.626;55.886;2023-04-07T03:13:49;76604.25;;;-145.10;100.00
56334;BME280;42240;53.626;55.886;2023-04-07T03:15:23;76622.06;;;-145.10;100.00
56334;BME280;42240;53.626;55.886;2023-04-07T03:16:56;76620.06;;;-145.10;100.00
56334;BME280;42240;53.626;55.886;2023-04-07T03:18:29;76624.03;;;-145.10;100.00
56334;BME280;42240;53.626;55.886;2023-04-07T03:20:05;76635.91;;;-145.10;100.00
56334;BME280;42240;53.626;55.886;2023-04-07T03:21:40;76633.91;;;-145.10;100.00
56334;BME280;42240;53.626;55.886;2023-04-07T03:23:14;76643.81;;;-145.10;100.00
56334;BME280;42240;53.626;55.886;2023-04-07T03:24:46;76651.72;;;-145.10;100.00
56334;BME280;42240;53.626;55.886;2023-04-07T03:26:20;76661.59;;;-145.10;100.00
56334;BME280;42240;53.626;55.886;2023-04-07T03:27:54;76681.38;;;-145.10;100.00
56334;BME280;42240;53.626;55.886;2023-04-07T03:29:29;76693.25;;;-145.10;100.00
56334;BME280;42240;53.626;55.886;2023-04-07T03:31:02;76703.13;;;-145.10;100.00
56334;BME280;42240;53.626;55.886;2023-04-07T03:32:35;76718.94;;;-145.10;100.00
56334;BME280;42240;53.626;55.886;2023-04-07T03:34:08;76713.03;;;-145.10;100.00
56334;BME280;42240;53.626;55.886;2023-04-07T03:35:41;76742.69;;;-145.10;100.00
56334;BME280;42240;53.626;55.886;2023-04-07T03:37:15;76756.53;;;-145.10;100.00
56334;BME280;42240;53.626;55.886;2023-04-07T03:38:49;76766.41;;;-145.10;100.00
56334;BME280;42240;53.626;55.886;2023-04-07T03:40:23;76784.22;;;-145.10;100.00
56334;BME280;42240;53.626;55.886;2023-04-07T03:41:56;76813.88;;;-145.10;100.00
56334;BME280;42240;53.626;55.886;2023-04-07T03:43:32;76796.06;;;-145.10;100.00
56334;BME280;42240;53.626;55.886;2023-04-07T03:45:05;76811.88;;;-145.10;100.00
56334;BME280;42240;53.626;55.886;2023-04-07T03:46:41;76835.63;;;-145.10;100.00
56334;BME280;42240;53.626;55.886;2023-04-07T03:48:14;76845.50;;;-145.10;100.00
56334;BME280;42240;53.626;55.886;2023-04-07T03:49:58;76847.50;;;-145.10;100.00
56334;BME280;42240;53.626;55.886;2023-04-07T03:51:32;76853.41;;;-145.10;100.00
56334;BME280;42240;53.626;55.886;2023-04-07T03:53:08;76851.44;;;-145.10;100.00
56334;BME280;42240;53.626;55.886;2023-04-07T03:54:41;76867.25;;;-145.10;100.00
56334;BME280;42240;53.626;55.886;2023-04-07T03:56:13;76877.16;;;-145.10;100.00
56334;BME280;42240;53.626;55.886;2023-04-07T03:57:49;76883.09;;;-145.10;100.00
56334;BME280;42240;53.626;55.886;2023-04-07T03:59:22;76900.88;;;-145.10;100.00
56334;BME280;42240;53.626;55.886;2023-04-07T04:01:01;76902.84;;;-145.10;100.00
56334;BME280;42240;53.626;55.886;2023-04-07T04:02:35;76920.66;;;-145.10;100.00
56334;BME280;42240;53.626;55.886;2023-04-07T04:04:08;76892.97;;;-145.10;100.00
56334;BME280;42240;53.626;55.886;2023-04-07T04:05:41;76885.06;;;-145.10;100.00
56334;BME280;42240;53.626;55.886;2023-04-07T04:07:19;76906.81;;;-145.10;100.00
56334;BME280;42240;53.626;55.886;2023-04-07T04:08:55;76900.88;;;-145.10;100.00
56334;BME280;42240;53.626;55.886;2023-04-07T04:10:29;76908.78;;;-145.10;100.00
56334;BME280;42240;53.626;55.886;2023-04-07T04:12:02;76916.69;;;-145.10;100.00
56334;BME280;42240;53.626;55.886;2023-04-07T04:13:37;76922.63;;;-145.10;100.00
56334;BME280;42240;53.626;55.886;2023-04-07T04:15:10;76934.50;;;-145.10;100.00
56334;BME280;42240;53.626;55.886;2023-04-07T04:16:43;76940.44;;;-145.10;100.00
56334;BME280;42240;53.626;55.886;2023-04-07T04:18:31;76914.72;;;-145.10;100.00
56334;BME280;42240;53.626;55.886;2023-04-07T04:20:04;76934.50;;;-145.10;100.00
56334;BME280;42240;53.626;55.886;2023-04-07T04:21:45;76936.47;;;-145.10;100.00
56334;BME280;42240;53.626;55.886;2023-04-07T04:23:19;76954.28;;;-145.10;100.00
56334;BME280;42240;53.626;55.886;2023-04-07T04:24:56;76970.09;;;-145.10;100.00
56334;BME280;42240;53.626;55.886;2023-04-07T04:26:31;76972.06;;;-145.10;100.00
56334;BME280;42240;53.626;55.886;2023-04-07T04:28:10;76968.13;;;-145.10;100.00
56334;BME280;42240;53.626;55.886;2023-04-07T04:29:45;76976.03;;;-145.10;100.00
56334;BME280;42240;53.626;55.886;2023-04-07T04:31:20;76983.94;;;-145.10;100.00
56334;BME280;42240;53.626;55.886;2023-04-07T04:32:53;76972.06;;;-145.10;100.00
56334;BME280;42240;53.626;55.886;2023-04-07T04:34:35;76976.03;;;-145.10;100.00
56334;BME280;42240;53.626;55.886;2023-04-07T04:36:08;76995.81;;;-145.10;100.00
56334;BME280;42240;53.626;55.886;2023-04-07T04:37:41;76991.84;;;-145.10;100.00
56334;BME280;42240;53.626;55.886;2023-04-07T04:39:15;76976.03;;;-145.10;100.00
56334;BME280;42240;53.626;55.886;2023-04-07T04:40:49;76983.94;;;-145.10;100.00
56334;BME280;42240;53.626;55.886;2023-04-07T04:42:27;76981.97;;;-145.10;100.00
56334;BME280;42240;53.626;55.886;2023-04-07T04:44:01;77015.56;;;-145.10;100.00
56334;BME280;42240;53.626;55.886;2023-04-07T04:45:35;76972.06;;;-145.10;100.00
56334;BME280;42240;53.626;55.886;2023-04-07T04:47:09;76966.13;;;-145.10;100.00
56334;BME280;42240;53.626;55.886;2023-04-07T04:48:44;76952.28;;;-145.10;100.00
56334;BME280;42240;53.626;55.886;2023-04-07T04:50:17;76976.03;;;-145.10;100.00
56334;BME280;42240;53.626;55.886;2023-04-07T04:51:51;76968.13;;;-145.10;100.00
56334;BME280;42240;53.626;55.886;2023-04-07T04:53:24;76997.78;;;-145.10;100.00
56334;BME280;42240;53.626;55.886;2023-04-07T04:55:01;76999.75;;;-145.10;100.00
56334;BME280;42240;53.626;55.886;2023-04-07T04:56:34;76997.78;;;-145.10;100.00
56334;BME280;42240;53.626;55.886;2023-04-07T04:58:07;76993.81;;;-145.10;100.00
56334;BME280;42240;53.626;55.886;2023-04-07T04:59:49;76987.88;;;-145.10;100.00
56334;BME280;42240;53.626;55.886;2023-04-07T05:01:23;77013.59;;;-145.10;100.00
56334;BME280;42240;53.626;55.886;2023-04-07T05:03:01;77003.72;;;-145.10;100.00
56334;BME280;42240;53.626;55.886;2023-04-07T05:04:39;77023.50;;;-145.10;100.00
56334;BME280;42240;53.626;55.886;2023-04-07T05:06:23;77019.53;;;-145.10;100.00
56334;BME280;42240;53.626;55.886;2023-04-07T05:07:58;77007.66;;;-145.10;100.00
56334;BME280;42240;53.626;55.886;2023-04-07T05:09:37;77007.66;;;-145.10;100.00
56334;BME280;42240;53.626;55.886;2023-04-07T05:11:10;77003.72;;;-145.10;100.00
56334;BME280;42240;53.626;55.886;2023-04-07T05:12:43;77019.53;;;-145.10;100.00
56334;BME280;42240;53.626;55.886;2023-04-07T05:14:16;77011.63;;;-145.10;100.00
56334;BME280;42240;53.626;55.886;2023-04-07T05:15:56;77017.56;;;-145.10;100.00
56334;BME280;42240;53.626;55.886;2023-04-07T05:17:29;77005.69;;;-145.10;100.00
56334;BME280;42240;53.626;55.886;2023-04-07T05:19:04;77009.66;;;-145.10;100.00
56334;BME280;42240;53.626;55.886;2023-04-07T05:20:37;76987.88;;;-145.10;100.00
56334;BME280;42240;53.626;55.886;2023-04-07T05:22:12;77007.66;;;-145.10;100.00
56334;BME280;42240;53.626;55.886;2023-04-07T05:23:49;77001.72;;;-145.10;100.00
56334;BME280;42240;53.626;55.886;2023-04-07T05:25:25;76991.84;;;-145.10;100.00
56334;BME280;42240;53.626;55.886;2023-04-07T05:27:02;76976.03;;;-145.10;100.00
56334;BME280;42240;53.626;55.886;2023-04-07T05:28:35;76966.13;;;-145.10;100.00
56334;BME280;42240;53.626;55.886;2023-04-07T05:30:13;76972.06;;;-145.10;100.00
56334;BME280;42240;53.626;55.886;2023-04-07T05:31:47;76966.13;;;-145.10;100.00
56334;BME280;42240;53.626;55.886;2023-04-07T05:33:21;76993.81;;;-145.10;100.00
56334;BME280;42240;53.626;55.886;2023-04-07T05:34:57;76985.91;;;-145.10;100.00
56334;BME280;42240;53.626;55.886;2023-04-07T05:36:34;76972.06;;;-145.10;100.00
56334;BME280;42240;53.626;55.886;2023-04-07T05:38:07;76968.13;;;-145.10;100.00
56334;BME280;42240;53.626;55.886;2023-04-07T05:39:40;76948.34;;;-145.10;100.00
56334;BME280;42240;53.626;55.886;2023-04-07T05:41:15;76956.25;;;-145.10;100.00
56334;BME280;42240;53.626;55.886;2023-04-07T05:42:48;76960.22;;;-145.10;100.00
56334;BME280;42240;53.626;55.886;2023-04-07T05:44:21;76968.13;;;-145.10;100.00
56334;BME280;42240;53.626;55.886;2023-04-07T05:45:53;76950.31;;;-145.10;100.00
56334;BME280;42240;53.626;55.886;2023-04-07T05:47:27;76972.06;;;-145.10;100.00
56334;BME280;42240;53.626;55.886;2023-04-07T05:49:00;76938.44;;;-145.10;100.00
56334;BME280;42240;53.626;55.886;2023-04-07T05:50:54;76940.44;;;-145.10;98.49
56334;BME280;42240;53.626;55.886;2023-04-07T05:52:27;76968.13;;;-145.10;97.52
56334;BME280;42240;53.626;55.886;2023-04-07T05:54:09;76954.28;;;-145.10;96.04
56334;BME280;42240;53.626;55.886;2023-04-07T05:55:42;76968.13;;;-145.10;94.96
56334;BME280;42240;53.626;55.886;2023-04-07T05:57:38;76995.81;;;-145.10;94.98
56334;BME280;42240;53.626;55.886;2023-04-07T05:59:11;76997.78;;;-145.10;95.28
56334;BME280;42240;53.626;55.886;2023-04-07T06:00:44;76976.03;;;-145.10;95.04
56334;BME280;42240;53.626;55.886;2023-04-07T06:02:21;76991.84;;;-145.10;95.00
56334;BME280;42240;53.626;55.886;2023-04-07T06:03:54;76985.91;;;-145.10;94.92
56334;BME280;42240;53.626;55.886;2023-04-07T06:05:30;77003.72;;;-145.10;95.14
56334;BME280;42240;53.626;55.886;2023-04-07T06:07:03;76987.88;;;-145.10;95.09
56334;BME280;42240;53.626;55.886;2023-04-07T06:08:35;76983.94;;;-145.10;94.87
56334;BME280;42240;53.626;55.886;2023-04-07T06:10:08;76964.16;;;-145.10;94.44
56334;BME280;42240;53.626;55.886;2023-04-07T06:11:41;76985.91;;;-145.10;93.45
56334;BME280;42240;53.626;55.886;2023-04-07T06:13:14;76983.94;;;-145.10;93.75
56334;BME280;42240;53.626;55.886;2023-04-07T06:14:51;77001.72;;;-145.10;93.18
56334;BME280;42240;53.626;55.886;2023-04-07T06:16:25;77011.63;;;-145.10;93.38
56334;BME280;42240;53.626;55.886;2023-04-07T06:17:58;77019.53;;;-145.10;92.66
56334;BME280;42240;53.626;55.886;2023-04-07T06:19:31;76995.81;;;-145.10;93.01
56334;BME280;42240;53.626;55.886;2023-04-07T06:21:05;76995.81;;;-145.10;93.14
56334;BME280;42240;53.626;55.886;2023-04-07T06:22:37;76983.94;;;-145.10;93.00
56334;BME280;42240;53.626;55.886;2023-04-07T06:24:11;76985.91;;;-145.10;92.42
56334;BME280;42240;53.626;55.886;2023-04-07T06:25:44;76983.94;;;-145.10;92.46
56334;BME280;42240;53.626;55.886;2023-04-07T06:27:17;76979.97;;;-145.10;92.52
56334;BME280;42240;53.626;55.886;2023-04-07T06:28:52;76972.06;;;-145.10;91.95
56334;BME280;42240;53.626;55.886;2023-04-07T06:30:25;76979.97;;;-145.10;92.25
56334;BME280;42240;53.626;55.886;2023-04-07T06:31:57;76962.19;;;-145.10;92.76
56334;BME280;42240;53.626;55.886;2023-04-07T06:33:30;76966.13;;;-145.10;92.87
56334;BME280;42240;53.626;55.886;2023-04-07T06:35:03;76944.38;;;-145.10;92.12
56334;BME280;42240;53.626;55.886;2023-04-07T06:36:36;76946.38;;;-145.10;91.78
56334;BME280;42240;53.626;55.886;2023-04-07T06:38:09;76934.50;;;-145.10;90.30
56334;BME280;42240;53.626;55.886;2023-04-07T06:39:43;76964.16;;;-145.10;90.08
56334;BME280;42240;53.626;55.886;2023-04-07T06:41:16;76964.16;;;-145.10;90.69
56334;BME280;42240;53.626;55.886;2023-04-07T06:42:49;76962.19;;;-145.10;90.95
56334;BME280;42240;53.626;55.886;2023-04-07T06:44:31;76942.41;;;-145.10;91.25
56334;BME280;42240;53.626;55.886;2023-04-07T06:46:04;76924.59;;;-145.10;90.36
56334;BME280;42240;53.626;55.886;2023-04-07T06:47:37;76940.44;;;-145.10;90.06
56334;BME280;42240;53.626;55.886;2023-04-07T06:49:10;76928.56;;;-145.10;89.80
56334;BME280;42240;53.626;55.886;2023-04-07T06:50:47;76944.38;;;-145.10;89.18
56334;BME280;42240;53.626;55.886;2023-04-07T06:52:20;76950.31;;;-145.10;89.75
56334;BME280;42240;53.626;55.886;2023-04-07T06:53:53;76944.38;;;-145.10;90.87
56334;BME280;42240;53.626;55.886;2023-04-07T06:55:26;76964.16;;;-145.10;92.08
56334;BME280;42240;53.626;55.886;2023-04-07T06:56:59;76968.13;;;-145.10;93.22
56334;BME280;42240;53.626;55.886;2023-04-07T06:58:33;76989.88;;;-145.10;93.28
56334;BME280;42240;53.626;55.886;2023-04-07T07:00:05;77007.66;;;-145.10;93.28
56334;BME280;42240;53.626;55.886;2023-04-07T07:01:39;77011.63;;;-145.10;94.27
56334;BME280;42240;53.626;55.886;2023-04-07T07:03:12;77011.63;;;-145.10;93.64
56334;BME280;42240;53.626;55.886;2023-04-07T07:04:47;77015.56;;;-145.10;93.71
56334;BME280;42240;53.626;55.886;2023-04-07T07:06:20;77013.59;;;-145.10;92.55
56334;BME280;42240;53.626;55.886;2023-04-07T07:07:52;76999.75;;;-145.10;91.50
56334;BME280;42240;53.626;55.886;2023-04-07T07:09:25;76972.06;;;-145.10;90.15
56334;BME280;42240;53.626;55.886;2023-04-07T07:10:58;76964.16;;;-145.10;88.71
56334;BME280;42240;53.626;55.886;2023-04-07T07:12:31;76972.06;;;-145.10;87.81
56334;BME280;42240;53.626;55.886;2023-04-07T07:14:04;76970.09;;;-145.10;87.54
56334;BME280;42240;53.626;55.886;2023-04-07T07:15:37;76981.97;;;-145.10;86.74
56334;BME280;42240;53.626;55.886;2023-04-07T07:17:10;76991.84;;;-145.10;86.09
56334;BME280;42240;53.626;55.886;2023-04-07T07:18:42;76983.94;;;-145.10;86.26
56334;BME280;42240;53.626;55.886;2023-04-07T07:20:15;76987.88;;;-145.10;85.20
56334;BME280;42240;53.626;55.886;2023-04-07T07:21:48;76956.25;;;-145.10;84.37
56334;BME280;42240;53.626;55.886;2023-04-07T07:23:21;76944.38;;;-145.10;83.58
56334;BME280;42240;53.626;55.886;2023-04-07T07:24:53;76944.38;;;-145.10;81.93
56334;BME280;42240;53.626;55.886;2023-04-07T07:26:27;76940.44;;;-145.10;80.95
56334;BME280;42240;53.626;55.886;2023-04-07T07:27:59;76960.22;;;-145.10;80.46
56334;BME280;42240;53.626;55.886;2023-04-07T07:29:32;76989.88;;;-145.10;79.58
56334;BME280;42240;53.626;55.886;2023-04-07T07:31:09;76960.22;;;-145.10;79.96
56334;BME280;42240;53.626;55.886;2023-04-07T07:32:44;76928.56;;;-145.10;78.34
56334;BME280;42240;53.626;55.886;2023-04-07T07:34:17;76910.75;;;-145.10;76.92
56334;BME280;42240;53.626;55.886;2023-04-07T07:35:49;76900.88;;;-145.10;74.48
56334;BME280;42240;53.626;55.886;2023-04-07T07:37:23;76924.59;;;-145.10;73.94
56334;BME280;42240;53.626;55.886;2023-04-07T07:38:55;76944.38;;;-145.10;73.45
56334;BME280;42240;53.626;55.886;2023-04-07T07:40:28;76952.28;;;-145.10;73.18
56334;BME280;42240;53.626;55.886;2023-04-07T07:42:01;76950.31;;;-145.10;72.64
56334;BME280;42240;53.626;55.886;2023-04-07T07:43:34;76974.06;;;-145.10;72.74
56334;BME280;42240;53.626;55.886;2023-04-07T07:45:08;76972.06;;;-145.10;73.39
56334;BME280;42240;53.626;55.886;2023-04-07T07:46:41;76964.16;;;-145.10;72.38
56334;BME280;42240;53.626;55.886;2023-04-07T07:48:14;76948.34;;;-145.10;71.52
56334;BME280;42240;53.626;55.886;2023-04-07T07:49:47;76993.81;;;-145.10;71.63
56334;BME280;42240;53.626;55.886;2023-04-07T07:51:19;77023.50;;;-145.10;72.12
56334;BME280;42240;53.626;55.886;2023-04-07T07:52:52;76995.81;;;-145.10;72.31
56334;BME280;42240;53.626;55.886;2023-04-07T07:54:25;76995.81;;;-145.10;72.24
56334;BME280;42240;53.626;55.886;2023-04-07T07:55:58;76991.84;;;-145.10;71.40
56334;BME280;42240;53.626;55.886;2023-04-07T07:57:31;76976.03;;;-145.10;71.21
56334;BME280;42240;53.626;55.886;2023-04-07T07:59:04;76964.16;;;-145.10;69.67
56334;BME280;42240;53.626;55.886;2023-04-07T08:00:39;76958.22;;;-145.10;69.27
56334;BME280;42240;53.626;55.886;2023-04-07T08:02:12;76946.38;;;-145.10;68.56
56334;BME280;42240;53.626;55.886;2023-04-07T08:03:45;76916.69;;;-145.10;67.72
56334;BME280;42240;53.626;55.886;2023-04-07T08:05:19;76914.72;;;-145.10;66.97